sensor_id;sensor_type;location;lat;lon;timestamp;temperature;humidity
79248;DHT22;68675;46.146;-0.948;2023-03-21T00:00:32;18.60;79.70
79248;DHT22;68675;46.146;-0.948;2023-03-21T00:02:58;18.50;79.70
79248;DHT22;68675;46.146;-0.948;2023-03-21T00:05:23;18.50;79.70
79248;DHT22;68675;46.146;-0.948;2023-03-21T00:07:49;18.50;79.60
79248;DHT22;68675;46.146;-0.948;2023-03-21T00:10:15;18.50;79.70
79248;DHT22;68675;46.146;-0.948;2023-03-21T00:12:40;18.50;79.70
79248;DHT22;68675;46.146;-0.948;2023-03-21T00:15:08;18.50;79.70
79248;DHT22;68675;46.146;-0.948;2023-03-21T00:17:34;18.50;79.80
79248;DHT22;68675;46.146;-0.948;2023-03-21T00:20:02;18.50;79.80
79248;DHT22;68675;46.146;-0.948;2023-03-21T00:22:34;18.50;79.60
79248;DHT22;68675;46.146;-0.948;2023-03-21T00:25:00;18.50;79.60
79248;DHT22;68675;46.146;-0.948;2023-03-21T00:27:26;18.40;79.70
79248;DHT22;68675;46.146;-0.948;2023-03-21T00:29:52;18.50;79.60
79248;DHT22;68675;46.146;-0.948;2023-03-21T00:32:20;18.50;79.80
79248;DHT22;68675;46.146;-0.948;2023-03-21T00:34:46;18.40;79.60
79248;DHT22;68675;46.146;-0.948;2023-03-21T00:37:12;18.40;79.80
79248;DHT22;68675;46.146;-0.948;2023-03-21T00:39:42;18.50;79.60
79248;DHT22;68675;46.146;-0.948;2023-03-21T00:42:11;18.40;79.80
79248;DHT22;68675;46.146;-0.948;2023-03-21T00:44:37;18.40;79.70
79248;DHT22;68675;46.146;-0.948;2023-03-21T00:47:05;18.40;79.70
79248;DHT22;68675;46.146;-0.948;2023-03-21T00:49:31;18.30;79.70
79248;DHT22;68675;46.146;-0.948;2023-03-21T00:52:01;18.30;79.90
79248;DHT22;68675;46.146;-0.948;2023-03-21T00:54:27;18.30;79.80
79248;DHT22;68675;46.146;-0.948;2023-03-21T00:56:52;18.40;79.80
79248;DHT22;68675;46.146;-0.948;2023-03-21T00:59:18;18.30;79.90
79248;DHT22;68675;46.146;-0.948;2023-03-21T01:01:44;18.20;79.80
79248;DHT22;68675;46.146;-0.948;2023-03-21T01:04:12;18.30;79.70
79248;DHT22;68675;46.146;-0.948;2023-03-21T01:06:40;18.30;79.90
79248;DHT22;68675;46.146;-0.948;2023-03-21T01:09:11;18.30;79.70
79248;DHT22;68675;46.146;-0.948;2023-03-21T01:11:38;18.30;79.80
79248;DHT22;68675;46.146;-0.948;2023-03-21T01:14:04;18.30;79.80
79248;DHT22;68675;46.146;-0.948;2023-03-21T01:16:30;18.20;79.80
79248;DHT22;68675;46.146;-0.948;2023-03-21T01:18:56;18.40;79.60
79248;DHT22;68675;46.146;-0.948;2023-03-21T01:21:22;18.30;79.80
79248;DHT22;68675;46.146;-0.948;2023-03-21T01:23:48;18.20;79.80
79248;DHT22;68675;46.146;-0.948;2023-03-21T01:26:14;18.30;79.90
79248;DHT22;68675;46.146;-0.948;2023-03-21T01:28:41;18.30;79.90
79248;DHT22;68675;46.146;-0.948;2023-03-21T01:31:07;18.20;79.90
79248;DHT22;68675;46.146;-0.948;2023-03-21T01:33:34;18.20;79.80
79248;DHT22;68675;46.146;-0.948;2023-03-21T01:36:00;18.10;80.40
79248;DHT22;68675;46.146;-0.948;2023-03-21T01:38:26;18.20;79.90
79248;DHT22;68675;46.146;-0.948;2023-03-21T01:40:53;18.30;80.00
79248;DHT22;68675;46.146;-0.948;2023-03-21T01:43:28;18.20;79.90
79248;DHT22;68675;46.146;-0.948;2023-03-21T01:48:39;18.20;79.70
79248;DHT22;68675;46.146;-0.948;2023-03-21T01:51:08;18.10;80.50
79248;DHT22;68675;46.146;-0.948;2023-03-21T01:53:37;18.10;80.30
79248;DHT22;68675;46.146;-0.948;2023-03-21T01:56:09;18.20;79.80
79248;DHT22;68675;46.146;-0.948;2023-03-21T01:58:36;18.10;80.40
79248;DHT22;68675;46.146;-0.948;2023-03-21T02:01:03;18.20;80.00
79248;DHT22;68675;46.146;-0.948;2023-03-21T02:03:29;18.20;79.80
79248;DHT22;68675;46.146;-0.948;2023-03-21T02:06:11;18.30;79.70
79248;DHT22;68675;46.146;-0.948;2023-03-21T02:08:38;18.10;80.30
79248;DHT22;68675;46.146;-0.948;2023-03-21T02:11:06;18.20;79.90
79248;DHT22;68675;46.146;-0.948;2023-03-21T02:13:32;18.30;79.70
79248;DHT22;68675;46.146;-0.948;2023-03-21T02:31:46;18.10;80.40
79248;DHT22;68675;46.146;-0.948;2023-03-21T02:34:44;18.20;79.80
79248;DHT22;68675;46.146;-0.948;2023-03-21T02:37:28;18.10;80.50
79248;DHT22;68675;46.146;-0.948;2023-03-21T02:50:17;18.00;80.30
79248;DHT22;68675;46.146;-0.948;2023-03-21T02:52:45;18.00;80.50
79248;DHT22;68675;46.146;-0.948;2023-03-21T02:55:24;18.00;80.50
79248;DHT22;68675;46.146;-0.948;2023-03-21T02:57:53;18.10;80.50
79248;DHT22;68675;46.146;-0.948;2023-03-21T03:00:23;18.00;80.70
79248;DHT22;68675;46.146;-0.948;2023-03-21T03:02:50;18.00;80.70
79248;DHT22;68675;46.146;-0.948;2023-03-21T03:05:17;18.10;80.70
79248;DHT22;68675;46.146;-0.948;2023-03-21T03:18:49;18.00;81.40
79248;DHT22;68675;46.146;-0.948;2023-03-21T03:23:57;18.00;80.80
79248;DHT22;68675;46.146;-0.948;2023-03-21T03:26:33;18.00;80.80
79248;DHT22;68675;46.146;-0.948;2023-03-21T03:29:07;17.90;80.70
79248;DHT22;68675;46.146;-0.948;2023-03-21T03:31:38;18.00;80.70
79248;DHT22;68675;46.146;-0.948;2023-03-21T03:34:10;18.00;80.70
79248;DHT22;68675;46.146;-0.948;2023-03-21T03:36:41;18.00;80.70
79248;DHT22;68675;46.146;-0.948;2023-03-21T03:39:09;18.10;80.70
79248;DHT22;68675;46.146;-0.948;2023-03-21T03:41:50;18.10;80.70
79248;DHT22;68675;46.146;-0.948;2023-03-21T03:44:18;18.00;80.50
79248;DHT22;68675;46.146;-0.948;2023-03-21T03:49:22;18.00;80.70
79248;DHT22;68675;46.146;-0.948;2023-03-21T03:52:03;17.90;80.50
79248;DHT22;68675;46.146;-0.948;2023-03-21T03:54:37;17.90;80.70
79248;DHT22;68675;46.146;-0.948;2023-03-21T03:57:04;18.00;80.60
79248;DHT22;68675;46.146;-0.948;2023-03-21T03:59:34;18.00;80.60
79248;DHT22;68675;46.146;-0.948;2023-03-21T04:02:00;17.90;80.70
79248;DHT22;68675;46.146;-0.948;2023-03-21T04:04:26;18.00;80.70
79248;DHT22;68675;46.146;-0.948;2023-03-21T04:06:53;18.10;80.60
79248;DHT22;68675;46.146;-0.948;2023-03-21T04:09:18;18.00;80.70
79248;DHT22;68675;46.146;-0.948;2023-03-21T04:11:44;17.90;80.80
79248;DHT22;68675;46.146;-0.948;2023-03-21T04:14:10;17.90;80.60
79248;DHT22;68675;46.146;-0.948;2023-03-21T04:16:36;18.00;80.60
79248;DHT22;68675;46.146;-0.948;2023-03-21T04:19:01;18.00;80.50
79248;DHT22;68675;46.146;-0.948;2023-03-21T04:21:28;18.00;80.60
79248;DHT22;68675;46.146;-0.948;2023-03-21T04:23:54;18.00;80.50
79248;DHT22;68675;46.146;-0.948;2023-03-21T04:26:21;18.00;80.60
79248;DHT22;68675;46.146;-0.948;2023-03-21T04:28:48;17.90;80.60
79248;DHT22;68675;46.146;-0.948;2023-03-21T04:31:14;18.00;80.60
79248;DHT22;68675;46.146;-0.948;2023-03-21T04:33:42;18.00;80.60
79248;DHT22;68675;46.146;-0.948;2023-03-21T04:36:08;18.00;80.60
79248;DHT22;68675;46.146;-0.948;2023-03-21T04:38:35;17.90;80.50
79248;DHT22;68675;46.146;-0.948;2023-03-21T04:41:01;18.00;80.60
79248;DHT22;68675;46.146;-0.948;2023-03-21T04:43:27;18.10;80.70
79248;DHT22;68675;46.146;-0.948;2023-03-21T04:45:54;18.00;80.70
79248;DHT22;68675;46.146;-0.948;2023-03-21T04:48:20;18.10;80.70
79248;DHT22;68675;46.146;-0.948;2023-03-21T04:50:49;18.00;80.60
79248;DHT22;68675;46.146;-0.948;2023-03-21T04:53:15;18.10;80.70
79248;DHT22;68675;46.146;-0.948;2023-03-21T04:55:41;18.10;80.60
79248;DHT22;68675;46.146;-0.948;2023-03-21T04:58:07;18.00;80.60
79248;DHT22;68675;46.146;-0.948;2023-03-21T05:00:33;18.10;80.60
79248;DHT22;68675;46.146;-0.948;2023-03-21T05:03:07;18.10;80.50
79248;DHT22;68675;46.146;-0.948;2023-03-21T05:05:35;18.10;80.70
79248;DHT22;68675;46.146;-0.948;2023-03-21T05:08:01;18.20;80.00
79248;DHT22;68675;46.146;-0.948;2023-03-21T05:10:26;18.10;80.60
79248;DHT22;68675;46.146;-0.948;2023-03-21T05:12:52;18.00;80.70
79248;DHT22;68675;46.146;-0.948;2023-03-21T05:15:18;18.10;80.60
79248;DHT22;68675;46.146;-0.948;2023-03-21T05:17:43;18.20;80.10
79248;DHT22;68675;46.146;-0.948;2023-03-21T05:20:13;18.20;80.00
79248;DHT22;68675;46.146;-0.948;2023-03-21T05:22:40;18.20;80.00
79248;DHT22;68675;46.146;-0.948;2023-03-21T05:25:07;18.20;80.00
79248;DHT22;68675;46.146;-0.948;2023-03-21T05:27:34;18.10;80.70
79248;DHT22;68675;46.146;-0.948;2023-03-21T05:30:13;18.10;80.60
79248;DHT22;68675;46.146;-0.948;2023-03-21T05:32:39;18.20;80.10
79248;DHT22;68675;46.146;-0.948;2023-03-21T05:35:05;18.20;80.20
79248;DHT22;68675;46.146;-0.948;2023-03-21T05:37:31;18.20;80.00
79248;DHT22;68675;46.146;-0.948;2023-03-21T05:39:56;18.20;80.00
79248;DHT22;68675;46.146;-0.948;2023-03-21T05:42:22;18.20;80.10
79248;DHT22;68675;46.146;-0.948;2023-03-21T05:44:48;18.20;80.10
79248;DHT22;68675;46.146;-0.948;2023-03-21T05:47:15;18.20;80.10
79248;DHT22;68675;46.146;-0.948;2023-03-21T05:49:42;18.30;80.20
79248;DHT22;68675;46.146;-0.948;2023-03-21T05:52:08;18.30;80.00
79248;DHT22;68675;46.146;-0.948;2023-03-21T05:54:34;18.20;80.20
79248;DHT22;68675;46.146;-0.948;2023-03-21T05:57:00;18.30;80.20
79248;DHT22;68675;46.146;-0.948;2023-03-21T05:59:26;18.30;80.30
79248;DHT22;68675;46.146;-0.948;2023-03-21T06:01:52;18.20;80.20
79248;DHT22;68675;46.146;-0.948;2023-03-21T06:04:17;18.20;80.10
79248;DHT22;68675;46.146;-0.948;2023-03-21T06:06:43;18.30;80.20
79248;DHT22;68675;46.146;-0.948;2023-03-21T06:09:09;18.20;80.30
79248;DHT22;68675;46.146;-0.948;2023-03-21T06:11:36;18.30;80.10
79248;DHT22;68675;46.146;-0.948;2023-03-21T06:14:02;18.20;80.20
79248;DHT22;68675;46.146;-0.948;2023-03-21T06:16:28;18.30;80.30
79248;DHT22;68675;46.146;-0.948;2023-03-21T06:18:55;18.30;80.30
79248;DHT22;68675;46.146;-0.948;2023-03-21T06:21:20;18.40;80.30
79248;DHT22;68675;46.146;-0.948;2023-03-21T06:23:47;18.30;80.20
79248;DHT22;68675;46.146;-0.948;2023-03-21T06:26:13;18.30;80.30
79248;DHT22;68675;46.146;-0.948;2023-03-21T06:28:38;18.30;80.10
79248;DHT22;68675;46.146;-0.948;2023-03-21T06:31:04;18.30;80.30
79248;DHT22;68675;46.146;-0.948;2023-03-21T06:33:31;18.40;80.20
79248;DHT22;68675;46.146;-0.948;2023-03-21T06:35:57;18.40;80.40
79248;DHT22;68675;46.146;-0.948;2023-03-21T06:38:24;18.30;80.30
79248;DHT22;68675;46.146;-0.948;2023-03-21T06:40:50;18.40;80.30
79248;DHT22;68675;46.146;-0.948;2023-03-21T06:43:16;18.40;80.10
79248;DHT22;68675;46.146;-0.948;2023-03-21T06:45:42;18.30;80.70
79248;DHT22;68675;46.146;-0.948;2023-03-21T06:48:08;18.20;80.90
79248;DHT22;68675;46.146;-0.948;2023-03-21T06:50:34;18.30;80.60
79248;DHT22;68675;46.146;-0.948;2023-03-21T06:52:59;18.30;80.40
79248;DHT22;68675;46.146;-0.948;2023-03-21T06:55:25;18.20;80.90
79248;DHT22;68675;46.146;-0.948;2023-03-21T06:57:53;18.30;80.80
79248;DHT22;68675;46.146;-0.948;2023-03-21T07:00:20;18.30;80.50
79248;DHT22;68675;46.146;-0.948;2023-03-21T07:02:45;18.40;80.30
79248;DHT22;68675;46.146;-0.948;2023-03-21T07:05:11;18.40;80.50
79248;DHT22;68675;46.146;-0.948;2023-03-21T07:07:38;18.40;80.40
79248;DHT22;68675;46.146;-0.948;2023-03-21T07:10:04;18.50;80.50
79248;DHT22;68675;46.146;-0.948;2023-03-21T07:12:30;18.40;80.50
79248;DHT22;68675;46.146;-0.948;2023-03-21T07:15:00;18.50;81.00
79248;DHT22;68675;46.146;-0.948;2023-03-21T07:17:26;18.40;80.50
79248;DHT22;68675;46.146;-0.948;2023-03-21T07:19:52;18.50;80.40
79248;DHT22;68675;46.146;-0.948;2023-03-21T07:22:18;18.60;80.40
79248;DHT22;68675;46.146;-0.948;2023-03-21T07:24:43;18.50;80.60
79248;DHT22;68675;46.146;-0.948;2023-03-21T07:27:13;18.50;80.80
79248;DHT22;68675;46.146;-0.948;2023-03-21T07:29:39;18.30;81.10
79248;DHT22;68675;46.146;-0.948;2023-03-21T07:32:05;18.20;80.50
79248;DHT22;68675;46.146;-0.948;2023-03-21T07:34:31;17.80;80.80
79248;DHT22;68675;46.146;-0.948;2023-03-21T07:36:58;17.90;80.90
79248;DHT22;68675;46.146;-0.948;2023-03-21T07:39:25;18.00;81.30
79248;DHT22;68675;46.146;-0.948;2023-03-21T07:41:51;18.10;81.20
79248;DHT22;68675;46.146;-0.948;2023-03-21T07:44:16;18.20;80.90
79248;DHT22;68675;46.146;-0.948;2023-03-21T07:46:42;18.30;81.00
79248;DHT22;68675;46.146;-0.948;2023-03-21T07:49:08;18.30;81.00
79248;DHT22;68675;46.146;-0.948;2023-03-21T07:51:34;18.40;80.70
79248;DHT22;68675;46.146;-0.948;2023-03-21T07:54:00;18.40;80.50
79248;DHT22;68675;46.146;-0.948;2023-03-21T07:56:27;18.50;80.40
79248;DHT22;68675;46.146;-0.948;2023-03-21T07:58:52;18.50;80.50
79248;DHT22;68675;46.146;-0.948;2023-03-21T08:01:18;18.40;80.60
79248;DHT22;68675;46.146;-0.948;2023-03-21T08:03:44;18.40;80.70
79248;DHT22;68675;46.146;-0.948;2023-03-21T08:06:09;18.30;80.80
79248;DHT22;68675;46.146;-0.948;2023-03-21T08:08:36;18.20;80.00
79248;DHT22;68675;46.146;-0.948;2023-03-21T08:11:03;18.00;81.20
79248;DHT22;68675;46.146;-0.948;2023-03-21T08:13:29;17.80;81.60
79248;DHT22;68675;46.146;-0.948;2023-03-21T08:15:54;18.00;81.50
79248;DHT22;68675;46.146;-0.948;2023-03-21T08:18:20;18.10;81.60
79248;DHT22;68675;46.146;-0.948;2023-03-21T08:20:53;18.20;81.10
79248;DHT22;68675;46.146;-0.948;2023-03-21T08:23:19;18.30;81.00
79248;DHT22;68675;46.146;-0.948;2023-03-21T08:25:49;18.40;80.90
79248;DHT22;68675;46.146;-0.948;2023-03-21T08:28:16;18.60;80.50
79248;DHT22;68675;46.146;-0.948;2023-03-21T08:30:42;18.50;80.20
79248;DHT22;68675;46.146;-0.948;2023-03-21T08:33:07;18.10;80.80
79248;DHT22;68675;46.146;-0.948;2023-03-21T08:35:33;18.00;80.60
79248;DHT22;68675;46.146;-0.948;2023-03-21T08:38:02;18.00;81.30
79248;DHT22;68675;46.146;-0.948;2023-03-21T08:40:27;18.20;80.90
79248;DHT22;68675;46.146;-0.948;2023-03-21T08:42:53;18.50;80.50
79248;DHT22;68675;46.146;-0.948;2023-03-21T08:45:19;18.70;80.30
79248;DHT22;68675;46.146;-0.948;2023-03-21T08:47:46;18.60;80.00
79248;DHT22;68675;46.146;-0.948;2023-03-21T08:50:15;18.70;79.90
79248;DHT22;68675;46.146;-0.948;2023-03-21T08:52:41;18.70;79.90
79248;DHT22;68675;46.146;-0.948;2023-03-21T08:55:08;18.80;79.70
79248;DHT22;68675;46.146;-0.948;2023-03-21T08:57:34;18.80;79.80
79248;DHT22;68675;46.146;-0.948;2023-03-21T08:59:59;18.80;79.80
79248;DHT22;68675;46.146;-0.948;2023-03-21T09:02:25;18.70;79.80
79248;DHT22;68675;46.146;-0.948;2023-03-21T09:04:51;18.70;79.70
79248;DHT22;68675;46.146;-0.948;2023-03-21T09:07:23;18.70;79.70
79248;DHT22;68675;46.146;-0.948;2023-03-21T09:09:51;18.70;79.90
79248;DHT22;68675;46.146;-0.948;2023-03-21T09:12:18;18.60;79.90
79248;DHT22;68675;46.146;-0.948;2023-03-21T09:14:43;18.70;79.90
79248;DHT22;68675;46.146;-0.948;2023-03-21T09:17:09;18.70;80.10
79248;DHT22;68675;46.146;-0.948;2023-03-21T09:19:36;18.50;80.50
79248;DHT22;68675;46.146;-0.948;2023-03-21T09:22:03;18.30;80.80
79248;DHT22;68675;46.146;-0.948;2023-03-21T09:24:29;18.20;81.10
79248;DHT22;68675;46.146;-0.948;2023-03-21T09:26:55;18.30;81.10
79248;DHT22;68675;46.146;-0.948;2023-03-21T09:29:21;18.50;80.90
79248;DHT22;68675;46.146;-0.948;2023-03-21T09:31:47;18.60;80.60
79248;DHT22;68675;46.146;-0.948;2023-03-21T09:34:14;18.70;80.20
79248;DHT22;68675;46.146;-0.948;2023-03-21T09:36:40;18.70;80.10
79248;DHT22;68675;46.146;-0.948;2023-03-21T09:39:09;18.90;80.00
79248;DHT22;68675;46.146;-0.948;2023-03-21T09:47:12;19.00;79.80
79248;DHT22;68675;46.146;-0.948;2023-03-21T09:49:46;19.10;79.70
79248;DHT22;68675;46.146;-0.948;2023-03-21T09:52:24;19.10;79.50
79248;DHT22;68675;46.146;-0.948;2023-03-21T09:54:53;19.00;79.60
79248;DHT22;68675;46.146;-0.948;2023-03-21T09:57:37;19.10;79.50
79248;DHT22;68675;46.146;-0.948;2023-03-21T10:00:09;19.10;79.60
79248;DHT22;68675;46.146;-0.948;2023-03-21T10:02:43;19.00;79.70
79248;DHT22;68675;46.146;-0.948;2023-03-21T10:05:30;19.00;79.80
79248;DHT22;68675;46.146;-0.948;2023-03-21T10:08:17;19.00;79.80
79248;DHT22;68675;46.146;-0.948;2023-03-21T10:10:49;19.00;79.80
79248;DHT22;68675;46.146;-0.948;2023-03-21T10:13:22;19.00;79.80
79248;DHT22;68675;46.146;-0.948;2023-03-21T10:15:49;19.10;79.60
79248;DHT22;68675;46.146;-0.948;2023-03-21T10:18:23;19.00;79.70
79248;DHT22;68675;46.146;-0.948;2023-03-21T10:20:51;18.90;79.80
79248;DHT22;68675;46.146;-0.948;2023-03-21T10:23:19;18.90;79.70
79248;DHT22;68675;46.146;-0.948;2023-03-21T10:25:49;19.00;79.70
79248;DHT22;68675;46.146;-0.948;2023-03-21T10:28:21;19.00;79.80
79248;DHT22;68675;46.146;-0.948;2023-03-21T10:30:54;19.00;79.70
79248;DHT22;68675;46.146;-0.948;2023-03-21T10:33:23;19.10;79.70
79248;DHT22;68675;46.146;-0.948;2023-03-21T10:35:55;19.10;79.70
79248;DHT22;68675;46.146;-0.948;2023-03-21T10:38:24;18.90;79.80
79248;DHT22;68675;46.146;-0.948;2023-03-21T10:40:51;18.90;79.90
79248;DHT22;68675;46.146;-0.948;2023-03-21T10:45:48;18.90;80.00
79248;DHT22;68675;46.146;-0.948;2023-03-21T10:48:14;18.90;80.00
79248;DHT22;68675;46.146;-0.948;2023-03-21T10:50:40;19.00;80.00
79248;DHT22;68675;46.146;-0.948;2023-03-21T10:53:17;19.00;79.90
79248;DHT22;68675;46.146;-0.948;2023-03-21T10:55:50;19.10;79.80
79248;DHT22;68675;46.146;-0.948;2023-03-21T10:58:19;19.00;79.90
79248;DHT22;68675;46.146;-0.948;2023-03-21T11:01:01;19.10;79.80
79248;DHT22;68675;46.146;-0.948;2023-03-21T11:03:35;19.00;79.90
79248;DHT22;68675;46.146;-0.948;2023-03-21T11:08:49;19.10;79.80
79248;DHT22;68675;46.146;-0.948;2023-03-21T11:12:18;19.10;80.20
79248;DHT22;68675;46.146;-0.948;2023-03-21T11:14:35;19.20;79.80
79248;DHT22;68675;46.146;-0.948;2023-03-21T11:17:28;19.10;80.00
79248;DHT22;68675;46.146;-0.948;2023-03-21T11:20:06;19.20;79.80
79248;DHT22;68675;46.146;-0.948;2023-03-21T11:22:40;19.20;79.80
79248;DHT22;68675;46.146;-0.948;2023-03-21T11:25:09;19.20;79.80
79248;DHT22;68675;46.146;-0.948;2023-03-21T11:27:49;19.30;79.70
79248;DHT22;68675;46.146;-0.948;2023-03-21T11:30:21;19.20;79.70
79248;DHT22;68675;46.146;-0.948;2023-03-21T11:32:55;19.30;79.70
79248;DHT22;68675;46.146;-0.948;2023-03-21T11:35:24;19.20;79.60
79248;DHT22;68675;46.146;-0.948;2023-03-21T11:37:54;19.20;79.60
79248;DHT22;68675;46.146;-0.948;2023-03-21T11:40:26;19.20;79.70
79248;DHT22;68675;46.146;-0.948;2023-03-21T11:42:58;19.20;79.60
79248;DHT22;68675;46.146;-0.948;2023-03-21T11:47:56;19.20;79.50
79248;DHT22;68675;46.146;-0.948;2023-03-21T11:50:33;19.30;79.30
79248;DHT22;68675;46.146;-0.948;2023-03-21T11:55:48;19.40;79.40
79248;DHT22;68675;46.146;-0.948;2023-03-21T12:06:44;19.30;79.30
79248;DHT22;68675;46.146;-0.948;2023-03-21T12:09:20;19.40;79.30
79248;DHT22;68675;46.146;-0.948;2023-03-21T12:22:47;19.30;79.40
79248;DHT22;68675;46.146;-0.948;2023-03-21T12:25:39;19.40;79.30
79248;DHT22;68675;46.146;-0.948;2023-03-21T12:28:31;19.40;79.10
79248;DHT22;68675;46.146;-0.948;2023-03-21T12:41:24;19.40;79.20
79248;DHT22;68675;46.146;-0.948;2023-03-21T12:43:59;19.50;79.10
79248;DHT22;68675;46.146;-0.948;2023-03-21T12:46:29;19.40;79.10
79248;DHT22;68675;46.146;-0.948;2023-03-21T12:49:00;19.40;79.20
79248;DHT22;68675;46.146;-0.948;2023-03-21T12:51:33;19.30;79.40
79248;DHT22;68675;46.146;-0.948;2023-03-21T12:57:05;19.30;79.40
79248;DHT22;68675;46.146;-0.948;2023-03-21T12:59:36;19.40;79.40
79248;DHT22;68675;46.146;-0.948;2023-03-21T13:02:43;19.30;78.80
79248;DHT22;68675;46.146;-0.948;2023-03-21T13:05:36;19.20;78.90
79248;DHT22;68675;46.146;-0.948;2023-03-21T13:11:05;19.20;79.10
79248;DHT22;68675;46.146;-0.948;2023-03-21T13:13:48;19.10;79.40
79248;DHT22;68675;46.146;-0.948;2023-03-21T13:16:40;19.20;79.50
79248;DHT22;68675;46.146;-0.948;2023-03-21T13:19:30;19.20;79.40
79248;DHT22;68675;46.146;-0.948;2023-03-21T13:22:09;19.40;79.20
79248;DHT22;68675;46.146;-0.948;2023-03-21T13:25:04;19.40;79.20
79248;DHT22;68675;46.146;-0.948;2023-03-21T13:27:33;19.40;79.10
79248;DHT22;68675;46.146;-0.948;2023-03-21T13:30:02;19.40;79.30
79248;DHT22;68675;46.146;-0.948;2023-03-21T13:32:36;19.40;79.20
79248;DHT22;68675;46.146;-0.948;2023-03-21T13:37:33;19.40;79.30
79248;DHT22;68675;46.146;-0.948;2023-03-21T13:40:04;19.30;79.40
79248;DHT22;68675;46.146;-0.948;2023-03-21T13:42:43;19.40;79.30
79248;DHT22;68675;46.146;-0.948;2023-03-21T13:45:21;19.40;79.30
79248;DHT22;68675;46.146;-0.948;2023-03-21T13:47:54;19.40;79.30
79248;DHT22;68675;46.146;-0.948;2023-03-21T13:50:22;19.40;79.40
79248;DHT22;68675;46.146;-0.948;2023-03-21T13:53:09;19.30;79.50
79248;DHT22;68675;46.146;-0.948;2023-03-21T13:55:41;19.40;79.40
79248;DHT22;68675;46.146;-0.948;2023-03-21T14:01:27;19.50;79.10
79248;DHT22;68675;46.146;-0.948;2023-03-21T14:06:39;19.40;79.50
79248;DHT22;68675;46.146;-0.948;2023-03-21T14:09:06;19.40;79.20
79248;DHT22;68675;46.146;-0.948;2023-03-21T14:11:33;19.40;79.40
79248;DHT22;68675;46.146;-0.948;2023-03-21T14:13:59;19.40;79.40
79248;DHT22;68675;46.146;-0.948;2023-03-21T14:16:26;19.40;79.40
79248;DHT22;68675;46.146;-0.948;2023-03-21T14:19:04;19.40;79.30
79248;DHT22;68675;46.146;-0.948;2023-03-21T14:21:34;19.30;79.40
79248;DHT22;68675;46.146;-0.948;2023-03-21T14:24:06;19.40;79.30
79248;DHT22;68675;46.146;-0.948;2023-03-21T14:26:40;19.40;79.30
79248;DHT22;68675;46.146;-0.948;2023-03-21T14:29:17;19.30;79.40
79248;DHT22;68675;46.146;-0.948;2023-03-21T14:31:46;19.30;79.40
79248;DHT22;68675;46.146;-0.948;2023-03-21T14:34:14;19.40;79.40
79248;DHT22;68675;46.146;-0.948;2023-03-21T14:36:41;19.40;79.40
79248;DHT22;68675;46.146;-0.948;2023-03-21T14:39:33;19.40;79.40
79248;DHT22;68675;46.146;-0.948;2023-03-21T14:42:08;19.40;79.20
79248;DHT22;68675;46.146;-0.948;2023-03-21T14:44:38;19.30;79.40
79248;DHT22;68675;46.146;-0.948;2023-03-21T14:47:07;19.40;79.40
79248;DHT22;68675;46.146;-0.948;2023-03-21T14:49:37;19.30;79.40
79248;DHT22;68675;46.146;-0.948;2023-03-21T14:52:06;19.30;79.50
79248;DHT22;68675;46.146;-0.948;2023-03-21T14:54:33;19.40;79.50
79248;DHT22;68675;46.146;-0.948;2023-03-21T14:57:02;19.40;79.50
79248;DHT22;68675;46.146;-0.948;2023-03-21T14:59:35;19.30;79.30
79248;DHT22;68675;46.146;-0.948;2023-03-21T15:02:07;19.40;79.30
79248;DHT22;68675;46.146;-0.948;2023-03-21T15:04:39;19.40;79.20
79248;DHT22;68675;46.146;-0.948;2023-03-21T15:07:04;19.30;79.20
79248;DHT22;68675;46.146;-0.948;2023-03-21T15:09:33;19.30;79.40
79248;DHT22;68675;46.146;-0.948;2023-03-21T15:11:59;19.40;79.40
79248;DHT22;68675;46.146;-0.948;2023-03-21T15:14:32;19.40;79.40
79248;DHT22;68675;46.146;-0.948;2023-03-21T15:17:00;19.40;79.20
79248;DHT22;68675;46.146;-0.948;2023-03-21T15:19:32;19.50;79.30
79248;DHT22;68675;46.146;-0.948;2023-03-21T15:22:06;19.50;79.20
79248;DHT22;68675;46.146;-0.948;2023-03-21T15:24:39;19.40;79.20
79248;DHT22;68675;46.146;-0.948;2023-03-21T15:27:11;19.50;79.50
79248;DHT22;68675;46.146;-0.948;2023-03-21T15:29:38;19.40;79.40
79248;DHT22;68675;46.146;-0.948;2023-03-21T15:32:12;19.50;79.30
79248;DHT22;68675;46.146;-0.948;2023-03-21T15:34:38;19.50;79.20
79248;DHT22;68675;46.146;-0.948;2023-03-21T15:37:07;19.50;79.20
79248;DHT22;68675;46.146;-0.948;2023-03-21T15:39:33;19.60;79.10
79248;DHT22;68675;46.146;-0.948;2023-03-21T15:44:48;19.60;79.20
79248;DHT22;68675;46.146;-0.948;2023-03-21T15:47:38;19.70;79.10
79248;DHT22;68675;46.146;-0.948;2023-03-21T15:50:45;19.50;78.00
79248;DHT22;68675;46.146;-0.948;2023-03-21T15:53:10;19.40;77.80
79248;DHT22;68675;46.146;-0.948;2023-03-21T15:58:12;19.50;78.20
79248;DHT22;68675;46.146;-0.948;2023-03-21T16:00:42;19.60;78.20
79248;DHT22;68675;46.146;-0.948;2023-03-21T16:03:27;19.60;78.30
79248;DHT22;68675;46.146;-0.948;2023-03-21T16:06:07;19.60;78.60
79248;DHT22;68675;46.146;-0.948;2023-03-21T16:13:42;19.70;78.50
79248;DHT22;68675;46.146;-0.948;2023-03-21T16:16:19;19.80;78.50
79248;DHT22;68675;46.146;-0.948;2023-03-21T16:18:45;19.80;78.50
79248;DHT22;68675;46.146;-0.948;2023-03-21T16:21:13;19.80;78.50
79248;DHT22;68675;46.146;-0.948;2023-03-21T16:23:39;19.70;78.60
79248;DHT22;68675;46.146;-0.948;2023-03-21T16:26:05;19.70;78.80
79248;DHT22;68675;46.146;-0.948;2023-03-21T16:28:31;19.70;78.80
79248;DHT22;68675;46.146;-0.948;2023-03-21T16:30:56;19.70;78.70
79248;DHT22;68675;46.146;-0.948;2023-03-21T16:33:22;19.90;78.50
79248;DHT22;68675;46.146;-0.948;2023-03-21T16:35:50;19.80;78.70
79248;DHT22;68675;46.146;-0.948;2023-03-21T16:38:16;19.60;78.70
79248;DHT22;68675;46.146;-0.948;2023-03-21T16:40:42;19.30;78.20
79248;DHT22;68675;46.146;-0.948;2023-03-21T16:43:09;19.20;78.30
79248;DHT22;68675;46.146;-0.948;2023-03-21T16:45:35;19.10;78.80
79248;DHT22;68675;46.146;-0.948;2023-03-21T16:48:01;19.20;78.90
79248;DHT22;68675;46.146;-0.948;2023-03-21T16:50:39;19.30;78.70
79248;DHT22;68675;46.146;-0.948;2023-03-21T16:53:06;19.50;78.70
79248;DHT22;68675;46.146;-0.948;2023-03-21T16:55:32;19.50;78.70
79248;DHT22;68675;46.146;-0.948;2023-03-21T16:58:00;19.50;79.10
79248;DHT22;68675;46.146;-0.948;2023-03-21T17:00:27;19.50;78.70
79248;DHT22;68675;46.146;-0.948;2023-03-21T17:02:54;19.70;78.70
79248;DHT22;68675;46.146;-0.948;2023-03-21T17:05:26;19.80;78.70
79248;DHT22;68675;46.146;-0.948;2023-03-21T17:07:54;19.90;78.70
79248;DHT22;68675;46.146;-0.948;2023-03-21T17:10:22;19.80;78.50
79248;DHT22;68675;46.146;-0.948;2023-03-21T17:12:48;19.70;78.80
79248;DHT22;68675;46.146;-0.948;2023-03-21T17:15:15;19.80;78.60
79248;DHT22;68675;46.146;-0.948;2023-03-21T17:17:41;19.80;78.70
79248;DHT22;68675;46.146;-0.948;2023-03-21T17:20:29;19.80;78.80
79248;DHT22;68675;46.146;-0.948;2023-03-21T17:22:56;19.80;78.60
79248;DHT22;68675;46.146;-0.948;2023-03-21T17:25:21;19.90;78.90